Time;durP1;ratioP1;P1;durP2;ratioP2;P2;SDS_P1;SDS_P2;PMS_P1;PMS_P2;Temp;Humidity;BMP_temperature;BMP_pressure;BME280_temperature;BME280_humidity;BME280_pressure;Samples;Min_cycle;Max_cycle;Signal;HPM_P1;HPM_P2
2023/04/10 00:00:32;;;;;;;97.70;47.83;;;7.60;99.90;;;;;;5032225;28;20032;-68
2023/04/10 00:03:00;;;;;;;99.45;47.90;;;7.60;99.90;;;;;;5031228;28;20085;-71
2023/04/10 00:05:26;;;;;;;98.90;48.50;;;7.60;99.90;;;;;;5030814;28;20095;-68
2023/04/10 00:07:52;;;;;;;100.03;47.78;;;7.50;99.90;;;;;;5031959;28;20017;-71
2023/04/10 00:10:18;;;;;;;92.03;45.88;;;7.50;99.90;;;;;;5030720;28;20025;-72
2023/04/10 00:12:44;;;;;;;93.53;46.22;;;7.50;99.90;;;;;;5030569;28;20045;-71
2023/04/10 00:15:10;;;;;;;89.05;46.30;;;7.50;99.90;;;;;;5030557;28;20034;-69
2023/04/10 00:17:35;;;;;;;94.10;45.65;;;7.40;99.90;;;;;;5032236;28;20044;-69
2023/04/10 00:20:01;;;;;;;91.57;45.05;;;7.40;99.90;;;;;;5031465;28;20026;-70
2023/04/10 00:22:26;;;;;;;96.75;47.20;;;7.40;99.90;;;;;;5030460;28;20022;-70
2023/04/10 00:24:52;;;;;;;91.90;45.22;;;7.40;99.90;;;;;;5031825;28;20117;-71
2023/04/10 00:27:18;;;;;;;97.05;47.38;;;7.40;99.90;;;;;;5029349;28;20037;-68
2023/04/10 00:29:43;;;;;;;100.25;48.30;;;7.40;99.90;;;;;;5031948;28;20071;-69
2023/04/10 00:32:09;;;;;;;102.03;51.90;;;7.30;99.90;;;;;;5030423;28;20029;-69
2023/04/10 00:34:35;;;;;;;115.72;54.15;;;7.30;99.90;;;;;;5031233;28;20032;-71
2023/04/10 00:37:00;;;;;;;114.60;55.15;;;7.30;99.90;;;;;;5031460;28;20485;-71
2023/04/10 00:39:26;;;;;;;112.25;54.30;;;7.30;99.90;;;;;;5031288;28;20077;-67
2023/04/10 00:41:51;;;;;;;112.07;53.88;;;7.20;99.90;;;;;;5030216;28;20029;-69
2023/04/10 00:44:17;;;;;;;108.53;52.45;;;7.20;99.90;;;;;;5031152;28;20061;-69
2023/04/10 00:46:43;;;;;;;112.63;54.13;;;7.20;99.90;;;;;;5031230;28;20103;-68
2023/04/10 00:49:08;;;;;;;108.18;53.05;;;7.10;99.90;;;;;;5031046;28;20519;-69
2023/04/10 00:51:36;;;;;;;113.43;53.80;;;7.20;99.90;;;;;;5029783;28;20046;-69
2023/04/10 00:54:02;;;;;;;105.85;52.47;;;7.10;99.90;;;;;;5031669;28;20026;-68
2023/04/10 00:56:31;;;;;;;110.63;53.20;;;7.10;99.90;;;;;;5030806;28;20049;-68
2023/04/10 00:58:56;;;;;;;105.68;49.90;;;7.00;99.90;;;;;;5029852;28;20017;-69
2023/04/10 01:01:22;;;;;;;105.72;50.28;;;7.00;99.90;;;;;;5030643;28;20026;-69
2023/04/10 01:03:47;;;;;;;98.03;47.83;;;6.90;99.90;;;;;;5029302;28;20505;-69
2023/04/10 01:06:32;;;;;;;102.88;48.38;;;6.90;99.90;;;;;;5031161;28;20021;-70
2023/04/10 01:09:21;;;;;;;101.78;46.65;;;6.80;99.90;;;;;;5030700;28;20058;-69
2023/04/10 01:11:47;;;;;;;89.03;42.30;;;6.80;99.90;;;;;;5030942;28;20124;-71
2023/04/10 01:14:45;;;;;;;82.28;39.33;;;6.80;99.90;;;;;;5029949;28;20064;-70
2023/04/10 01:17:21;;;;;;;83.78;40.08;;;6.70;99.90;;;;;;5028396;28;20025;-68
2023/04/10 01:20:13;;;;;;;88.28;41.95;;;6.70;99.90;;;;;;5029368;28;20028;-69
2023/04/10 01:23:07;;;;;;;88.47;41.15;;;6.70;99.90;;;;;;5029936;28;20025;-67
2023/04/10 01:25:40;;;;;;;80.30;38.57;;;6.80;99.90;;;;;;5030581;28;20033;-68
2023/04/10 01:28:16;;;;;;;85.88;38.95;;;6.80;99.90;;;;;;5030982;28;20037;-70
2023/04/10 01:30:43;;;;;;;87.18;39.25;;;6.80;99.90;;;;;;5030835;28;20502;-69
2023/04/10 01:33:12;;;;;;;86.13;39.85;;;6.80;99.90;;;;;;5029903;28;20033;-69
2023/04/10 01:35:40;;;;;;;83.95;40.78;;;6.90;99.90;;;;;;5029829;28;20022;-69
2023/04/10 01:38:07;;;;;;;84.80;39.33;;;6.90;99.90;;;;;;5030528;28;20033;-69
2023/04/10 01:40:37;;;;;;;81.47;39.38;;;6.90;99.90;;;;;;5031013;28;20022;-68
2023/04/10 01:43:06;;;;;;;89.93;41.13;;;7.00;99.90;;;;;;5031885;28;20034;-70
2023/04/10 01:45:32;;;;;;;80.38;39.55;;;7.00;99.90;;;;;;5030385;28;20022;-69
2023/04/10 01:47:59;;;;;;;83.40;40.03;;;7.00;99.90;;;;;;5031368;28;20028;-69
2023/04/10 01:50:27;;;;;;;90.85;41.10;;;7.00;99.90;;;;;;5030061;28;20026;-69
2023/04/10 01:52:53;;;;;;;82.45;40.25;;;7.00;99.90;;;;;;5031134;28;20094;-70
2023/04/10 01:55:20;;;;;;;85.20;40.53;;;7.00;99.90;;;;;;5031357;28;20030;-68
2023/04/10 01:57:47;;;;;;;86.05;40.30;;;7.00;99.90;;;;;;5032072;28;20022;-68
2023/04/10 02:00:15;;;;;;;85.18;43.17;;;7.00;99.90;;;;;;5030998;28;20018;-68
2023/04/10 02:02:41;;;;;;;83.90;41.50;;;7.00;99.90;;;;;;5032097;28;20026;-69
2023/04/10 02:05:09;;;;;;;88.82;41.65;;;7.00;99.90;;;;;;5031178;28;20026;-68
2023/04/10 02:08:00;;;;;;;81.05;41.20;;;6.90;99.90;;;;;;5031086;28;20025;-69
2023/04/10 02:11:05;;;;;;;86.78;41.60;;;7.00;99.90;;;;;;5030263;28;20148;-69
2023/04/10 02:13:34;;;;;;;89.80;43.58;;;6.90;99.90;;;;;;5023469;28;20125;-69
2023/04/10 02:16:05;;;;;;;88.90;42.17;;;6.90;99.90;;;;;;5031654;28;20026;-69
2023/04/10 02:18:33;;;;;;;90.90;41.45;;;6.90;99.90;;;;;;5031650;28;20103;-71
2023/04/10 02:20:59;;;;;;;88.80;42.78;;;6.90;99.90;;;;;;5031589;28;20029;-68
2023/04/10 02:23:25;;;;;;;88.15;41.10;;;6.90;99.90;;;;;;5030737;28;20022;-69
2023/04/10 02:25:51;;;;;;;88.57;42.17;;;6.90;99.90;;;;;;5032082;28;20032;-70
2023/04/10 02:28:16;;;;;;;91.78;42.13;;;6.90;99.90;;;;;;5031891;28;20025;-70
2023/04/10 02:30:42;;;;;;;88.30;40.80;;;6.80;99.90;;;;;;5031341;28;20038;-68
2023/04/10 02:33:07;;;;;;;92.82;40.92;;;6.80;99.90;;;;;;5032027;28;20093;-69
2023/04/10 02:35:33;;;;;;;89.88;43.95;;;6.80;99.90;;;;;;5031263;28;20029;-68
2023/04/10 02:37:59;;;;;;;87.38;43.20;;;6.80;99.90;;;;;;5031254;28;20093;-68
2023/04/10 02:40:25;;;;;;;91.00;42.25;;;6.70;99.90;;;;;;5031667;28;20109;-68
2023/04/10 02:42:51;;;;;;;90.53;41.22;;;6.70;99.90;;;;;;5031037;28;20028;-71
2023/04/10 02:45:16;;;;;;;95.65;42.30;;;6.70;99.90;;;;;;5031578;28;20025;-70
2023/04/10 02:47:42;;;;;;;86.82;41.90;;;6.70;99.90;;;;;;5030074;28;20033;-70
2023/04/10 02:50:08;;;;;;;83.32;41.22;;;6.80;99.90;;;;;;5031311;28;20497;-68
2023/04/10 02:52:34;;;;;;;90.30;42.50;;;6.70;99.90;;;;;;5031433;28;20045;-71
2023/04/10 02:54:59;;;;;;;97.00;43.38;;;6.70;99.90;;;;;;5029718;28;20018;-70
2023/04/10 02:57:27;;;;;;;95.38;42.30;;;6.70;99.90;;;;;;5033925;28;20108;-68
2023/04/10 02:59:53;;;;;;;85.70;40.65;;;6.60;99.90;;;;;;5034308;28;20022;-70
2023/04/10 03:02:20;;;;;;;86.82;41.47;;;6.70;99.90;;;;;;5034627;28;20075;-72
2023/04/10 03:04:46;;;;;;;92.13;41.90;;;6.70;99.90;;;;;;5034717;28;20022;-70
2023/04/10 03:07:11;;;;;;;89.72;41.22;;;6.60;99.90;;;;;;5034719;28;20021;-69
2023/04/10 03:09:37;;;;;;;86.82;39.85;;;6.60;99.90;;;;;;5034031;28;20125;-69
2023/04/10 03:12:02;;;;;;;80.57;39.00;;;6.60;99.90;;;;;;5034514;28;20053;-68
2023/04/10 03:14:28;;;;;;;86.72;41.85;;;6.60;99.90;;;;;;5034276;28;20041;-72
2023/04/10 03:16:53;;;;;;;91.15;41.22;;;6.60;99.90;;;;;;5034347;28;20025;-69
2023/04/10 03:19:19;;;;;;;88.32;41.25;;;6.60;99.90;;;;;;5035017;28;20037;-68
2023/04/10 03:21:45;;;;;;;85.40;39.45;;;6.60;99.90;;;;;;5034327;28;20030;-70
2023/04/10 03:24:11;;;;;;;85.65;40.22;;;6.50;99.90;;;;;;5032479;28;20030;-70
2023/04/10 03:26:37;;;;;;;87.70;42.13;;;6.60;99.90;;;;;;5032530;28;20027;-72
2023/04/10 03:29:02;;;;;;;90.10;41.50;;;6.60;99.90;;;;;;5033087;28;20089;-71
2023/04/10 03:31:28;;;;;;;93.07;42.40;;;6.50;99.90;;;;;;5032354;28;20114;-69
2023/04/10 03:33:54;;;;;;;92.78;42.00;;;6.60;99.90;;;;;;5034476;28;20025;-71
2023/04/10 03:36:20;;;;;;;88.20;42.40;;;6.50;99.90;;;;;;5034419;28;20022;-71
2023/04/10 03:38:45;;;;;;;84.80;41.28;;;6.50;99.90;;;;;;5034294;28;20026;-69
2023/04/10 03:41:11;;;;;;;91.13;42.25;;;6.50;99.90;;;;;;5034030;28;20026;-71
2023/04/10 03:43:38;;;;;;;89.07;40.85;;;6.50;99.90;;;;;;5032623;28;20060;-69
2023/04/10 03:46:03;;;;;;;90.82;41.17;;;6.50;99.90;;;;;;5034064;28;20030;-70
2023/04/10 03:48:30;;;;;;;92.45;42.53;;;6.50;99.90;;;;;;5033921;28;20029;-69
2023/04/10 03:50:56;;;;;;;89.90;41.83;;;6.50;99.90;;;;;;5033747;28;20041;-69
2023/04/10 03:53:22;;;;;;;90.85;41.28;;;6.40;99.90;;;;;;5032782;28;20080;-72
2023/04/10 03:55:47;;;;;;;94.80;42.00;;;6.40;99.90;;;;;;5033367;28;20021;-72
2023/04/10 03:58:13;;;;;;;91.90;41.63;;;6.40;99.90;;;;;;5033682;28;20837;-69
2023/04/10 04:00:39;;;;;;;90.45;41.85;;;6.30;99.90;;;;;;5032669;28;20029;-70
2023/04/10 04:03:04;;;;;;;88.60;43.17;;;6.40;99.90;;;;;;5033442;28;20044;-69
2023/04/10 04:05:31;;;;;;;91.00;43.17;;;6.40;99.90;;;;;;5033557;28;20026;-68
2023/04/10 04:07:56;;;;;;;89.55;42.38;;;6.30;99.90;;;;;;5033123;28;20053;-69
2023/04/10 04:10:23;;;;;;;90.68;41.90;;;6.40;99.90;;;;;;5033167;28;20050;-73
2023/04/10 04:12:48;;;;;;;93.40;42.70;;;6.30;99.90;;;;;;5033005;28;20030;-69
2023/04/10 04:15:14;;;;;;;94.47;43.20;;;6.40;99.90;;;;;;5033570;28;20552;-69
2023/04/10 04:17:40;;;;;;;87.28;41.47;;;6.30;99.90;;;;;;5033583;28;20063;-68
2023/04/10 04:20:06;;;;;;;90.82;43.50;;;6.40;99.90;;;;;;5032870;28;20037;-67
2023/04/10 04:22:32;;;;;;;92.05;42.42;;;6.30;99.90;;;;;;5031604;28;20105;-70
2023/04/10 04:24:58;;;;;;;92.45;43.65;;;6.30;99.90;;;;;;5033183;28;20057;-72
2023/04/10 04:27:23;;;;;;;93.25;43.92;;;6.30;99.90;;;;;;5031431;28;20557;-69
2023/04/10 04:29:49;;;;;;;92.05;42.33;;;6.30;99.90;;;;;;5033343;28;20029;-71
2023/04/10 04:32:15;;;;;;;89.25;43.05;;;6.20;99.90;;;;;;5032703;28;20057;-69
2023/04/10 04:34:41;;;;;;;85.85;42.80;;;6.30;99.90;;;;;;5033274;28;20041;-69
2023/04/10 04:37:06;;;;;;;92.88;42.15;;;6.10;99.90;;;;;;5032952;28;20036;-69
2023/04/10 04:39:32;;;;;;;91.55;43.60;;;6.10;99.90;;;;;;5032830;28;20049;-69
2023/04/10 04:41:57;;;;;;;90.18;42.55;;;6.00;99.90;;;;;;5033053;28;20025;-70
2023/04/10 04:44:23;;;;;;;87.55;41.20;;;6.00;99.90;;;;;;5032939;28;20401;-70
2023/04/10 04:46:48;;;;;;;94.45;43.50;;;6.00;99.90;;;;;;5032905;28;20032;-70
2023/04/10 04:49:14;;;;;;;89.68;42.78;;;6.00;99.90;;;;;;5032933;28;20094;-69
2023/04/10 04:51:40;;;;;;;97.75;45.00;;;6.00;99.90;;;;;;5031370;28;20103;-69
2023/04/10 04:54:05;;;;;;;91.65;43.65;;;6.00;99.90;;;;;;5032248;28;20022;-70
2023/04/10 04:56:31;;;;;;;91.85;43.88;;;6.00;99.90;;;;;;5032593;28;20104;-69
2023/04/10 04:58:56;;;;;;;88.57;39.92;;;6.10;99.90;;;;;;5032732;28;20026;-69
2023/04/10 05:01:23;;;;;;;91.22;42.58;;;6.10;99.90;;;;;;5031134;28;20398;-71
2023/04/10 05:03:49;;;;;;;91.57;42.40;;;6.10;99.90;;;;;;5031408;28;20022;-71
2023/04/10 05:06:16;;;;;;;83.07;40.40;;;6.20;99.90;;;;;;5033125;28;20072;-70
2023/04/10 05:08:42;;;;;;;89.55;43.30;;;6.20;99.90;;;;;;5031233;28;20041;-70
2023/04/10 05:11:07;;;;;;;88.40;42.28;;;6.20;99.90;;;;;;5032035;28;20549;-70
2023/04/10 05:13:33;;;;;;;87.85;41.88;;;6.20;99.90;;;;;;5032097;28;20025;-69
2023/04/10 05:15:59;;;;;;;84.80;40.60;;;6.30;99.90;;;;;;5032760;28;20029;-73
2023/04/10 05:18:24;;;;;;;89.53;41.20;;;6.30;99.90;;;;;;5031734;28;20044;-69
2023/04/10 05:20:50;;;;;;;88.00;41.47;;;6.30;99.90;;;;;;5028568;28;20045;-70
2023/04/10 05:23:16;;;;;;;90.65;41.85;;;6.40;99.90;;;;;;5032290;28;20075;-73
2023/04/10 05:25:42;;;;;;;83.47;38.92;;;6.40;99.90;;;;;;5031055;28;20498;-69
2023/04/10 05:28:08;;;;;;;90.10;41.25;;;6.50;99.90;;;;;;5030650;28;20029;-70
2023/04/10 05:30:33;;;;;;;90.45;43.05;;;6.50;99.90;;;;;;5031982;28;20486;-69
2023/04/10 05:32:59;;;;;;;88.72;41.60;;;6.50;99.90;;;;;;5032018;28;20037;-69
2023/04/10 05:35:24;;;;;;;90.95;42.85;;;6.50;99.90;;;;;;5031828;28;20037;-69
2023/04/10 05:37:50;;;;;;;87.78;39.47;;;6.50;99.90;;;;;;5029516;28;20053;-71
2023/04/10 05:40:15;;;;;;;84.72;40.00;;;6.60;99.90;;;;;;5031612;28;20097;-73
2023/04/10 05:42:41;;;;;;;84.22;41.28;;;6.60;99.90;;;;;;5032688;28;20040;-70
2023/04/10 05:45:07;;;;;;;85.00;37.83;;;6.60;99.90;;;;;;5028530;28;20052;-70
2023/04/10 05:47:32;;;;;;;85.95;38.88;;;6.60;99.90;;;;;;5028325;28;20033;-69
2023/04/10 05:49:58;;;;;;;78.68;38.28;;;6.70;99.90;;;;;;5031353;28;20030;-70
2023/04/10 05:52:24;;;;;;;89.40;39.85;;;6.70;99.90;;;;;;5030340;28;20041;-70
2023/04/10 05:54:50;;;;;;;85.07;39.30;;;6.70;99.90;;;;;;5030390;28;20089;-68
2023/04/10 05:57:17;;;;;;;87.53;40.28;;;6.70;99.90;;;;;;5031961;28;20025;-70
2023/04/10 05:59:42;;;;;;;81.13;38.08;;;6.70;99.90;;;;;;5031284;28;20334;-70
2023/04/10 06:02:08;;;;;;;88.18;40.38;;;6.80;99.90;;;;;;5032011;28;20144;-70
2023/04/10 06:04:34;;;;;;;83.57;39.83;;;6.80;99.90;;;;;;5030293;28;20471;-71
2023/04/10 06:07:00;;;;;;;84.25;40.35;;;6.80;99.90;;;;;;5027242;28;20042;-72
2023/04/10 06:09:25;;;;;;;79.60;37.47;;;6.90;99.90;;;;;;5029333;28;20050;-71
2023/04/10 06:11:52;;;;;;;79.32;37.65;;;7.00;99.90;;;;;;5029877;28;20072;-70
2023/04/10 06:14:19;;;;;;;81.78;38.58;;;7.00;99.90;;;;;;5029980;28;20037;-71
2023/04/10 06:16:45;;;;;;;76.15;37.78;;;7.10;99.90;;;;;;5030836;28;20083;-70
2023/04/10 06:19:11;;;;;;;81.10;38.15;;;7.10;99.90;;;;;;5030676;28;20481;-70
2023/04/10 06:21:36;;;;;;;78.95;37.78;;;7.20;99.90;;;;;;5031401;28;20089;-69
2023/04/10 06:24:02;;;;;;;69.65;34.40;;;7.30;99.90;;;;;;5029886;28;20045;-70
2023/04/10 06:26:28;;;;;;;77.03;36.47;;;7.30;99.90;;;;;;5031313;28;20037;-71
2023/04/10 06:28:53;;;;;;;71.93;35.45;;;7.40;99.90;;;;;;5030562;28;20010;-70
2023/04/10 06:31:22;;;;;;;74.05;35.63;;;7.50;99.90;;;;;;5033296;28;20045;-71
2023/04/10 06:33:49;;;;;;;79.68;38.53;;;7.60;99.90;;;;;;5035204;28;20083;-70
2023/04/10 06:36:15;;;;;;;72.35;36.67;;;7.70;99.90;;;;;;5034829;28;20022;-72
2023/04/10 06:38:41;;;;;;;75.93;36.63;;;7.80;99.90;;;;;;5035559;28;20030;-70
2023/04/10 06:41:06;;;;;;;73.45;34.50;;;7.90;99.90;;;;;;5035250;28;20021;-71
2023/04/10 06:43:36;;;;;;;68.57;34.92;;;7.90;99.90;;;;;;5034951;28;20033;-71
2023/04/10 06:46:05;;;;;;;68.15;32.65;;;8.00;99.90;;;;;;5035070;28;20395;-71
2023/04/10 06:48:32;;;;;;;68.50;34.50;;;8.10;99.90;;;;;;5033359;28;20018;-70
2023/04/10 06:51:00;;;;;;;68.40;34.38;;;8.20;99.90;;;;;;5033969;28;20021;-72
2023/04/10 06:53:26;;;;;;;66.60;35.75;;;8.30;99.90;;;;;;5030988;28;20123;-68
2023/04/10 06:55:52;;;;;;;63.55;32.10;;;8.40;99.90;;;;;;5031292;28;20108;-71
2023/04/10 06:58:17;;;;;;;62.85;30.67;;;8.50;99.90;;;;;;5032889;28;20470;-71
2023/04/10 07:00:43;;;;;;;68.50;32.65;;;8.60;99.90;;;;;;5032666;28;20040;-70
2023/04/10 07:03:09;;;;;;;66.00;32.65;;;8.70;99.90;;;;;;5033650;28;20033;-70
2023/04/10 07:05:34;;;;;;;61.70;31.60;;;8.80;99.90;;;;;;5031367;28;20040;-70
2023/04/10 07:08:00;;;;;;;61.38;30.88;;;8.90;99.90;;;;;;5033992;28;20085;-74
2023/04/10 07:10:26;;;;;;;60.70;29.60;;;9.10;99.90;;;;;;5034040;28;20033;-71
2023/04/10 07:12:51;;;;;;;57.55;30.77;;;9.20;99.90;;;;;;5034155;28;20033;-70
2023/04/10 07:15:17;;;;;;;59.13;29.92;;;9.30;99.90;;;;;;5034553;28;20066;-69
2023/04/10 07:17:42;;;;;;;55.15;29.50;;;9.50;99.90;;;;;;5033149;28;20030;-69
2023/04/10 07:20:09;;;;;;;53.25;28.83;;;9.60;99.90;;;;;;5033430;28;20029;-71
2023/04/10 07:22:34;;;;;;;55.50;29.65;;;9.70;99.90;;;;;;5033046;28;20056;-68
2023/04/10 07:25:00;;;;;;;58.55;28.50;;;9.80;99.90;;;;;;5028205;28;20113;-69
2023/04/10 07:27:26;;;;;;;49.58;27.45;;;10.00;99.90;;;;;;5029713;28;20094;-71
2023/04/10 07:29:54;;;;;;;51.25;27.27;;;10.20;99.90;;;;;;5033865;28;20045;-72
2023/04/10 07:32:19;;;;;;;49.72;26.35;;;10.30;99.90;;;;;;5029847;28;20037;-72
2023/04/10 07:34:45;;;;;;;55.30;27.63;;;10.40;99.90;;;;;;5033511;28;20014;-70
2023/04/10 07:37:11;;;;;;;52.60;27.17;;;10.60;99.90;;;;;;5034066;28;20427;-72
2023/04/10 07:39:36;;;;;;;47.22;26.20;;;10.70;99.90;;;;;;5033386;28;20030;-70
2023/04/10 07:42:04;;;;;;;47.88;25.30;;;10.80;99.90;;;;;;5033539;28;20028;-71
2023/04/10 07:44:30;;;;;;;49.50;24.30;;;10.90;99.90;;;;;;5032458;28;20021;-68
2023/04/10 07:46:55;;;;;;;45.83;24.73;;;11.00;99.90;;;;;;5032492;28;20069;-69
2023/04/10 07:49:22;;;;;;;48.03;23.45;;;11.10;99.90;;;;;;5033253;28;20032;-71
2023/04/10 07:51:47;;;;;;;47.28;24.13;;;11.20;99.90;;;;;;5033897;28;20073;-69
2023/04/10 07:54:13;;;;;;;41.67;23.90;;;11.30;99.90;;;;;;5030027;28;20041;-69
2023/04/10 07:56:39;;;;;;;41.75;22.45;;;11.30;99.90;;;;;;5026275;28;21193;-69
2023/04/10 07:59:04;;;;;;;43.80;23.95;;;11.40;99.90;;;;;;5032513;28;20026;-69
2023/04/10 08:01:30;;;;;;;43.55;24.25;;;11.50;99.90;;;;;;5033328;28;20054;-68
2023/04/10 08:03:56;;;;;;;39.70;22.60;;;11.60;99.90;;;;;;5031978;28;20029;-70
2023/04/10 08:06:22;;;;;;;43.22;25.45;;;11.60;99.90;;;;;;5030682;28;20478;-72
2023/04/10 08:08:47;;;;;;;41.60;23.48;;;11.80;99.90;;;;;;5032833;28;20402;-72
2023/04/10 08:11:30;;;;;;;40.10;23.00;;;11.90;99.90;;;;;;5033493;28;20037;-70
2023/04/10 08:13:57;;;;;;;40.35;22.60;;;12.10;99.90;;;;;;5031122;28;20045;-69
2023/04/10 08:16:28;;;;;;;39.03;21.50;;;12.30;99.90;;;;;;5032717;28;20080;-69
2023/04/10 08:18:54;;;;;;;38.33;21.33;;;12.40;99.90;;;;;;5030326;28;20025;-71
2023/04/10 08:21:25;;;;;;;32.92;17.42;;;12.60;99.90;;;;;;5033452;28;20014;-70
2023/04/10 08:23:58;;;;;;;30.10;16.52;;;12.80;99.90;;;;;;5032437;28;20025;-70
2023/04/10 08:26:25;;;;;;;39.58;22.15;;;13.00;99.90;;;;;;5029622;28;20028;-69
2023/04/10 08:28:52;;;;;;;36.15;21.23;;;13.10;99.90;;;;;;5033496;28;20033;-71
2023/04/10 08:31:19;;;;;;;35.38;21.20;;;13.30;99.90;;;;;;5033431;28;20037;-69
2023/04/10 08:33:45;;;;;;;37.85;21.70;;;13.50;99.90;;;;;;5031842;28;20033;-69
2023/04/10 08:36:12;;;;;;;33.92;20.42;;;13.60;99.90;;;;;;5030606;28;20057;-69
2023/04/10 08:38:38;;;;;;;35.22;20.85;;;13.70;99.90;;;;;;5032063;28;20048;-68
2023/04/10 08:41:05;;;;;;;34.70;21.40;;;13.80;99.90;;;;;;5031928;28;20036;-71
2023/04/10 08:43:31;;;;;;;34.22;20.80;;;13.90;99.90;;;;;;5030684;28;20033;-70
2023/04/10 08:45:57;;;;;;;55.30;22.25;;;14.10;99.90;;;;;;5030042;28;20036;-68
2023/04/10 08:48:36;;;;;;;32.55;20.17;;;14.20;99.90;;;;;;5032101;28;20018;-70
2023/04/10 08:51:06;;;;;;;31.40;19.13;;;14.50;99.90;;;;;;5029001;28;20431;-70
2023/04/10 08:53:38;;;;;;;33.85;19.45;;;14.60;99.90;;;;;;5027383;28;20022;-68
2023/04/10 08:56:05;;;;;;;32.60;20.83;;;14.80;99.90;;;;;;5029923;28;20052;-69
2023/04/10 08:58:32;;;;;;;30.17;18.65;;;15.00;99.90;;;;;;5031222;28;20017;-73
2023/04/10 09:00:58;;;;;;;32.60;19.55;;;15.10;99.90;;;;;;5031597;28;20021;-69
2023/04/10 09:03:26;;;;;;;29.67;17.60;;;15.20;99.90;;;;;;5028224;28;20067;-71
2023/04/10 09:05:56;;;;;;;31.42;19.10;;;15.20;99.90;;;;;;5030085;28;20037;-72
2023/04/10 09:08:21;;;;;;;33.50;18.15;;;15.30;99.90;;;;;;5030750;28;20049;-70
2023/04/10 09:10:47;;;;;;;28.38;17.83;;;15.40;99.90;;;;;;5030411;28;20407;-70
2023/04/10 09:13:12;;;;;;;29.85;18.13;;;15.40;99.90;;;;;;5030766;28;20049;-70
2023/04/10 09:15:58;;;;;;;29.33;16.85;;;15.50;99.90;;;;;;5028763;28;20037;-71
2023/04/10 09:18:43;;;;;;;26.23;15.40;;;15.50;99.90;;;;;;5031112;28;20068;-72
2023/04/10 09:21:10;;;;;;;29.75;19.25;;;15.40;99.90;;;;;;5030736;28;20072;-71
2023/04/10 09:23:36;;;;;;;33.03;19.58;;;15.50;99.90;;;;;;5029997;28;20028;-72
2023/04/10 09:26:26;;;;;;;32.45;19.67;;;15.60;99.90;;;;;;5026762;28;20037;-71
2023/04/10 09:29:11;;;;;;;29.50;18.38;;;15.70;99.90;;;;;;5024950;28;20060;-70
2023/04/10 09:31:38;;;;;;;28.02;16.08;;;15.90;99.90;;;;;;5029158;28;20490;-71
2023/04/10 09:34:18;;;;;;;27.42;15.60;;;16.00;99.90;;;;;;5030567;28;20029;-68
2023/04/10 09:36:55;;;;;;;25.80;16.25;;;16.00;99.90;;;;;;5028094;28;20044;-69
2023/04/10 09:39:31;;;;;;;26.10;15.88;;;16.00;99.90;;;;;;5031925;28;20089;-67
2023/04/10 09:41:57;;;;;;;32.15;15.25;;;16.00;99.90;;;;;;5030541;28;20026;-71
2023/04/10 09:44:36;;;;;;;30.10;17.08;;;16.00;99.90;;;;;;5032400;28;20018;-72
2023/04/10 09:47:22;;;;;;;26.08;17.65;;;15.80;99.90;;;;;;5030486;28;20029;-70
2023/04/10 09:49:52;;;;;;;21.95;9.07;;;15.70;99.90;;;;;;5046289;28;20036;-72
2023/04/10 09:52:27;;;;;;;28.45;14.63;;;15.80;99.90;;;;;;5032020;28;20598;-71
2023/04/10 09:55:02;;;;;;;23.20;14.32;;;16.00;99.90;;;;;;5031336;28;20030;-72
2023/04/10 09:57:29;;;;;;;24.58;14.98;;;16.10;99.90;;;;;;5031751;28;20025;-70
2023/04/10 09:59:57;;;;;;;24.20;16.23;;;16.20;99.90;;;;;;5029037;28;20457;-70
2023/04/10 10:02:25;;;;;;;24.90;14.20;;;16.40;99.90;;;;;;5030696;28;20030;-71
2023/04/10 10:04:51;;;;;;;28.27;14.15;;;16.60;99.90;;;;;;5028788;28;20045;-70
2023/04/10 10:07:19;;;;;;;22.35;13.35;;;16.70;99.90;;;;;;5033709;28;20030;-74
2023/04/10 10:09:46;;;;;;;21.00;13.65;;;16.80;99.90;;;;;;5035435;28;20149;-70
2023/04/10 10:12:15;;;;;;;25.40;13.07;;;16.90;99.90;;;;;;5034837;28;20154;-68
2023/04/10 10:14:51;;;;;;;21.77;12.98;;;17.00;99.90;;;;;;5035215;28;20076;-74
2023/04/10 10:17:21;;;;;;;19.90;13.07;;;17.30;99.90;;;;;;5035790;28;20022;-71
2023/04/10 10:19:59;;;;;;;26.50;13.30;;;17.50;99.90;;;;;;5034035;28;20024;-73
2023/04/10 10:22:27;;;;;;;19.08;11.00;;;17.60;99.90;;;;;;5032854;28;20077;-70
2023/04/10 10:24:55;;;;;;;22.83;12.18;;;17.80;99.90;;;;;;5034324;28;20029;-70
2023/04/10 10:27:22;;;;;;;18.45;10.95;;;17.60;99.90;;;;;;5033712;28;20518;-72
2023/04/10 10:29:51;;;;;;;22.83;11.65;;;17.80;99.90;;;;;;5034420;28;20033;-69
2023/04/10 10:32:17;;;;;;;19.30;11.40;;;17.80;99.90;;;;;;5034162;28;20041;-73
2023/04/10 10:34:43;;;;;;;16.45;10.18;;;17.80;99.90;;;;;;5032320;28;20022;-71
2023/04/10 10:37:10;;;;;;;23.58;10.75;;;18.00;99.90;;;;;;5034466;28;20033;-71
2023/04/10 10:39:59;;;;;;;19.83;11.73;;;18.20;99.90;;;;;;5029724;28;20706;-70
2023/04/10 10:43:03;;;;;;;17.90;11.50;;;18.30;99.90;;;;;;5033016;28;20078;-72
2023/04/10 10:46:06;;;;;;;17.45;12.38;;;18.50;99.90;;;;;;5031517;28;20022;-70
2023/04/10 10:48:31;;;;;;;16.80;10.45;;;18.60;99.90;;;;;;5030621;28;20475;-73
2023/04/10 10:50:59;;;;;;;15.82;10.02;;;18.70;99.90;;;;;;5034893;28;20034;-71
2023/04/10 10:53:35;;;;;;;21.90;10.63;;;18.60;99.90;;;;;;5031823;28;20018;-73
2023/04/10 10:56:19;;;;;;;19.20;11.25;;;18.80;99.90;;;;;;5032019;28;20048;-71
2023/04/10 10:58:49;;;;;;;15.85;11.38;;;18.80;99.90;;;;;;5033363;28;20022;-70
2023/04/10 11:01:15;;;;;;;24.38;10.70;;;18.80;99.90;;;;;;5034797;28;20038;-69
2023/04/10 11:03:43;;;;;;;14.15;9.20;;;18.80;99.90;;;;;;5034357;28;20026;-69
2023/04/10 11:06:11;;;;;;;13.70;9.50;;;18.70;99.90;;;;;;5033377;28;20026;-69
2023/04/10 11:08:42;;;;;;;16.95;11.07;;;18.40;99.90;;;;;;5033970;28;20046;-71
2023/04/10 11:11:08;;;;;;;18.48;9.60;;;18.20;99.90;;;;;;5033069;28;20128;-73
2023/04/10 11:13:39;;;;;;;17.63;8.02;;;18.10;99.90;;;;;;5031950;28;20059;-70
2023/04/10 11:16:08;;;;;;;20.23;10.73;;;17.90;99.90;;;;;;5032356;28;20028;-71
2023/04/10 11:18:49;;;;;;;16.98;10.05;;;17.70;99.90;;;;;;5032597;28;20056;-71
2023/04/10 11:21:16;;;;;;;20.00;10.43;;;17.60;99.90;;;;;;5030056;28;20022;-73
2023/04/10 11:23:54;;;;;;;16.88;11.50;;;17.60;99.90;;;;;;5032478;28;20037;-73
2023/04/10 11:26:32;;;;;;;15.35;9.82;;;17.60;99.90;;;;;;5027545;28;20496;-75
2023/04/10 11:28:58;;;;;;;15.75;10.00;;;17.60;99.90;;;;;;5033369;28;20033;-71
2023/04/10 11:31:24;;;;;;;16.30;9.95;;;17.70;99.90;;;;;;5030622;28;20058;-71
2023/04/10 11:33:59;;;;;;;15.52;7.90;;;17.60;99.90;;;;;;5034110;28;20037;-72
2023/04/10 11:36:25;;;;;;;13.32;9.40;;;17.60;99.90;;;;;;5032961;28;20032;-73
2023/04/10 11:39:07;;;;;;;16.08;8.65;;;17.50;99.90;;;;;;5032800;28;20037;-72
2023/04/10 11:41:35;;;;;;;14.50;9.95;;;17.50;99.90;;;;;;5033915;28;20033;-73
2023/04/10 11:44:04;;;;;;;17.80;8.93;;;17.60;99.90;;;;;;5033684;28;20482;-71
2023/04/10 11:46:30;;;;;;;15.95;9.43;;;17.70;99.90;;;;;;5031472;28;20026;-72
2023/04/10 11:49:03;;;;;;;14.52;8.93;;;17.60;99.90;;;;;;5031561;28;20030;-71
2023/04/10 11:51:29;;;;;;;13.98;9.05;;;17.70;99.90;;;;;;5033065;28;20052;-72
2023/04/10 11:54:09;;;;;;;14.15;8.43;;;17.80;99.90;;;;;;5033545;28;20076;-74
2023/04/10 11:56:36;;;;;;;14.65;9.85;;;17.70;99.90;;;;;;5034143;28;20029;-74
2023/04/10 11:59:06;;;;;;;14.52;8.40;;;17.70;99.90;;;;;;5032393;28;20427;-71
2023/04/10 12:01:32;;;;;;;14.50;10.40;;;17.40;99.90;;;;;;5033125;28;20026;-70
2023/04/10 12:03:58;;;;;;;13.88;9.30;;;17.50;99.90;;;;;;5033645;28;20029;-72
2023/04/10 12:06:24;;;;;;;14.50;7.60;;;17.50;99.90;;;;;;5033731;28;20029;-71
2023/04/10 12:08:50;;;;;;;17.48;8.05;;;17.50;99.90;;;;;;5033684;28;20122;-71
2023/04/10 12:11:21;;;;;;;14.77;9.50;;;17.40;99.90;;;;;;5032396;28;20045;-72
2023/04/10 12:13:47;;;;;;;14.23;9.75;;;17.40;99.90;;;;;;5031621;28;20083;-71
2023/04/10 12:16:13;;;;;;;10.40;6.65;;;17.50;99.90;;;;;;5033399;28;20030;-70
2023/04/10 12:18:39;;;;;;;14.65;8.93;;;17.50;99.90;;;;;;5032323;28;20029;-71
2023/04/10 12:21:06;;;;;;;13.77;9.15;;;17.50;99.90;;;;;;5031464;28;20022;-72
2023/04/10 12:23:32;;;;;;;13.68;8.85;;;17.70;99.90;;;;;;5031875;28;20025;-72
2023/04/10 12:26:14;;;;;;;13.02;8.45;;;17.90;99.90;;;;;;5026268;28;20109;-73
2023/04/10 12:29:00;;;;;;;13.10;8.55;;;18.10;99.90;;;;;;5030656;28;20037;-72
2023/04/10 12:31:31;;;;;;;11.70;7.10;;;18.30;99.90;;;;;;5024285;28;20037;-70
2023/04/10 12:33:57;;;;;;;11.43;7.85;;;18.50;99.90;;;;;;5029660;28;20391;-73
2023/04/10 12:36:28;;;;;;;16.17;8.90;;;18.50;99.90;;;;;;5031880;28;20030;-70
2023/04/10 12:38:54;;;;;;;9.52;6.10;;;18.80;99.90;;;;;;5031039;28;20089;-69